CYWH

Victoria Harbour Seaplane Base

Victoria, British Columbia, Canada
METAR CYWH 150500Z 31004KT 15SM FEW160 SCT240 04/03 A3023 RMK AC1CI3 LAST STFD OBS/NEXT 151400 UTC PRESRR SLP238
Observed Flight Rules
Dec-15 @ 05:00 UTC (9 hours ago) Visual Flight Rules
Wind Visibility Clouds
310° at 4 knots 15 miles
  • Few at 16,000' AGL
  • Scattered at 24,000' AGL
Temperatures Readings
Current 4°C / 39°F
Dewpoint 3°C / 37°F
Humidity 93%
Altimeter 30.23" Hg
Pressure 1023.8 hPa
Elevation 10
METAR CYWH 150500Z 31004KT 15SM FEW160 SCT240 04/03 A3023 RMK AC1CI3 LAST STFD OBS/NEXT 151400 UTC PRESRR SLP238
Observed Flight Rules
Dec-15 @ 05:00 UTC
(9 hours ago)
VFR
Wind Visibility
310° at 4 knots 15 miles
Clouds
  • Few at 16,000' AGL
  • Scattered at 24,000' AGL
Temperature Dewpoint
4°C / 39°F 3°C / 37°F
Humidity Altimeter Pressure
93% 30.23" Hg 1023.8 hPa